Time;durP1;ratioP1;P1;durP2;ratioP2;P2;SDS_P1;SDS_P2;PMS_P1;PMS_P2;Temp;Humidity;BMP_temperature;BMP_pressure;BME280_temperature;BME280_humidity;BME280_pressure;Samples;Min_cycle;Max_cycle;Signal;HPM_P1;HPM_P2
2022/02/08 00:02:18;;;;;;;2.22;0.30;;;22.10;40.50;;;;;;5047671;28;20075;-51
2022/02/08 00:04:47;;;;;;;5.30;0.57;;;22.00;40.60;;;;;;5047377;28;20037;-54
2022/02/08 00:07:14;;;;;;;1.67;1.15;;;21.90;40.60;;;;;;5040310;28;20602;-51
2022/02/08 00:09:41;;;;;;;5.35;0.30;;;21.90;40.80;;;;;;5046572;28;20056;-50
2022/02/08 00:12:09;;;;;;;0.77;0.10;;;21.80;40.80;;;;;;5043896;28;20045;-53
2022/02/08 00:14:38;;;;;;;5.28;1.27;;;21.80;40.90;;;;;;5058434;28;20184;-52
2022/02/08 00:17:05;;;;;;;3.13;0.30;;;21.70;40.90;;;;;;5055731;28;20428;-51
2022/02/08 00:19:32;;;;;;;1.65;0.30;;;21.60;41.00;;;;;;5029131;28;20843;-52
2022/02/08 00:21:59;;;;;;;1.50;0.50;;;21.60;41.10;;;;;;5048563;28;20041;-51
2022/02/08 00:24:26;;;;;;;1.95;0.30;;;21.60;41.80;;;;;;5045552;28;20764;-51
2022/02/08 00:26:54;;;;;;;3.08;0.85;;;21.50;41.30;;;;;;5045129;28;20048;-47
2022/02/08 00:29:22;;;;;;;2.83;0.63;;;21.50;41.40;;;;;;5044671;28;20047;-48
2022/02/08 00:31:51;;;;;;;2.53;0.30;;;21.40;41.40;;;;;;5046569;28;20087;-47
2022/02/08 00:34:19;;;;;;;1.65;0.20;;;21.40;41.50;;;;;;5046884;28;20124;-51
2022/02/08 00:36:46;;;;;;;4.90;0.40;;;21.40;41.60;;;;;;5043351;28;20052;-47
2022/02/08 00:39:13;;;;;;;1.77;0.45;;;21.30;41.70;;;;;;5043750;28;20045;-49
2022/02/08 00:41:40;;;;;;;1.25;0.30;;;21.30;41.80;;;;;;5061958;28;20040;-51
2022/02/08 00:44:11;;;;;;;4.20;0.98;;;21.20;41.80;;;;;;5041281;28;20076;-52
2022/02/08 00:46:44;;;;;;;3.78;0.77;;;21.20;42.00;;;;;;5043784;28;20600;-51
2022/02/08 00:49:13;;;;;;;2.40;0.30;;;21.10;42.00;;;;;;5047272;28;20116;-50
2022/02/08 00:51:44;;;;;;;7.97;0.57;;;21.10;42.10;;;;;;5048985;28;20045;-52
2022/02/08 00:54:12;;;;;;;0.93;0.20;;;21.10;42.30;;;;;;5041554;28;20044;-50
2022/02/08 00:56:41;;;;;;;1.13;0.65;;;21.00;42.30;;;;;;5047758;28;20662;-54
2022/02/08 00:59:09;;;;;;;2.97;0.40;;;21.00;42.30;;;;;;5052040;28;20048;-48
2022/02/08 01:01:38;;;;;;;4.88;0.30;;;21.00;42.40;;;;;;5045668;28;20041;-54
2022/02/08 01:04:06;;;;;;;4.72;0.63;;;21.00;42.50;;;;;;5047513;28;20051;-53
2022/02/08 01:06:34;;;;;;;3.47;0.68;;;20.90;42.50;;;;;;5042566;28;20044;-54
2022/02/08 01:09:11;;;;;;;1.52;0.50;;;20.90;42.60;;;;;;5042554;28;20049;-54
2022/02/08 01:11:39;;;;;;;1.23;0.28;;;20.90;42.70;;;;;;5045504;28;20041;-55
2022/02/08 01:14:06;;;;;;;1.90;0.57;;;20.90;42.70;;;;;;5051319;28;20052;-51
2022/02/08 01:16:33;;;;;;;1.20;0.82;;;20.80;42.70;;;;;;5052385;28;20130;-52
2022/02/08 01:19:02;;;;;;;2.08;0.30;;;20.80;42.70;;;;;;5049374;28;20049;-53
2022/02/08 01:21:31;;;;;;;1.92;0.30;;;20.80;42.80;;;;;;5040574;28;20057;-51
2022/02/08 01:24:00;;;;;;;1.90;0.35;;;20.80;42.80;;;;;;5055801;28;20045;-54
2022/02/08 01:26:29;;;;;;;2.90;0.50;;;20.70;42.80;;;;;;5048514;28;20045;-53
2022/02/08 01:29:02;;;;;;;4.40;0.30;;;20.70;42.90;;;;;;5043504;28;20044;-53
2022/02/08 01:31:35;;;;;;;1.50;0.20;;;20.70;42.90;;;;;;5046412;28;20118;-53
2022/02/08 01:34:26;;;;;;;2.67;0.95;;;20.70;43.00;;;;;;5040890;28;20048;-50
2022/02/08 01:37:06;;;;;;;3.40;0.40;;;20.70;43.10;;;;;;5037449;28;20790;-50
2022/02/08 01:39:43;;;;;;;1.55;0.68;;;20.70;43.20;;;;;;5040721;28;20049;-52
2022/02/08 01:42:29;;;;;;;3.17;0.20;;;20.60;43.20;;;;;;5043146;28;20597;-52
2022/02/08 01:45:34;;;;;;;2.58;0.20;;;20.60;43.30;;;;;;5057512;28;20097;-49
2022/02/08 01:48:07;;;;;;;1.98;0.20;;;20.60;43.30;;;;;;5041687;28;20407;-52
2022/02/08 01:50:36;;;;;;;0.88;0.38;;;20.60;43.40;;;;;;5044973;28;20575;-53
2022/02/08 01:53:03;;;;;;;0.40;0.10;;;20.50;43.40;;;;;;5044734;28;20418;-48
2022/02/08 01:55:37;;;;;;;1.88;0.52;;;20.60;43.60;;;;;;5036701;28;20077;-52
2022/02/08 01:58:04;;;;;;;1.02;0.20;;;20.50;43.50;;;;;;5037909;28;20037;-51
2022/02/08 02:00:33;;;;;;;0.45;0.20;;;20.50;43.50;;;;;;5053452;28;20455;-50
2022/02/08 02:03:01;;;;;;;0.95;0.38;;;20.50;43.50;;;;;;5042967;28;20045;-51
2022/02/08 02:05:34;;;;;;;1.83;0.30;;;20.50;43.50;;;;;;5044163;28;20045;-54
2022/02/08 02:08:01;;;;;;;2.45;0.30;;;20.50;43.50;;;;;;5050857;28;20033;-52
2022/02/08 02:10:30;;;;;;;4.13;0.20;;;20.50;43.60;;;;;;5046715;28;20037;-52
2022/02/08 02:13:04;;;;;;;5.32;0.50;;;20.50;43.60;;;;;;5043523;28;20123;-52
2022/02/08 02:15:35;;;;;;;3.22;0.52;;;20.50;43.60;;;;;;5051513;28;20045;-52
2022/02/08 02:18:03;;;;;;;4.20;0.40;;;20.50;43.60;;;;;;5041557;28;20037;-52
2022/02/08 02:20:33;;;;;;;6.28;0.43;;;20.50;43.70;;;;;;5044854;28;20533;-49
2022/02/08 02:23:00;;;;;;;1.65;0.50;;;20.50;43.90;;;;;;5052502;28;20040;-51
2022/02/08 02:25:31;;;;;;;0.60;0.30;;;20.50;44.10;;;;;;5047690;28;20052;-51
2022/02/08 02:28:03;;;;;;;8.27;1.48;;;20.50;44.10;;;;;;5039458;28;20129;-49
2022/02/08 02:30:33;;;;;;;8.13;0.70;;;20.60;44.10;;;;;;5046571;28;20044;-50
2022/02/08 02:33:04;;;;;;;1.20;0.35;;;20.60;44.10;;;;;;5054912;28;20037;-52
2022/02/08 02:35:32;;;;;;;1.13;0.40;;;20.70;44.10;;;;;;5044374;28;20141;-50
2022/02/08 02:38:04;;;;;;;2.22;0.10;;;20.70;44.00;;;;;;5039709;28;20044;-54
2022/02/08 02:40:36;;;;;;;2.63;0.57;;;20.70;43.90;;;;;;5039140;28;20048;-54
2022/02/08 02:43:05;;;;;;;1.83;0.40;;;20.80;43.90;;;;;;5038541;28;20044;-49
2022/02/08 02:45:34;;;;;;;5.22;0.63;;;20.80;43.80;;;;;;5038921;28;20108;-53
2022/02/08 02:48:01;;;;;;;3.63;0.32;;;20.80;43.80;;;;;;5047518;28;20037;-52
2022/02/08 02:50:36;;;;;;;1.75;0.30;;;20.80;43.70;;;;;;5039521;28;20556;-50
2022/02/08 02:53:04;;;;;;;2.45;0.17;;;20.80;43.60;;;;;;5047751;28;20555;-53
2022/02/08 02:55:33;;;;;;;0.68;0.20;;;20.80;43.60;;;;;;5048620;28;20056;-53
2022/02/08 02:58:03;;;;;;;0.70;0.13;;;20.90;43.60;;;;;;5034195;28;20076;-50
2022/02/08 03:00:37;;;;;;;2.30;0.30;;;20.90;43.50;;;;;;5038244;28;20143;-53
2022/02/08 03:03:25;;;;;;;1.77;0.30;;;20.80;43.40;;;;;;5036916;28;20034;-52
2022/02/08 03:06:07;;;;;;;1.75;0.30;;;20.90;43.40;;;;;;5057500;28;20048;-50
2022/02/08 03:19:35;;;;;;;2.67;0.65;;;20.90;43.40;;;;;;5045796;28;20048;-50
2022/02/08 03:22:02;;;;;;;3.25;0.30;;;20.80;43.40;;;;;;5027016;28;20111;-49
2022/02/08 03:24:29;;;;;;;2.97;0.60;;;20.80;43.30;;;;;;5044656;28;20049;-50
2022/02/08 03:26:58;;;;;;;2.60;0.73;;;20.90;43.40;;;;;;5045886;28;20559;-52
2022/02/08 03:29:28;;;;;;;0.45;0.15;;;20.90;43.40;;;;;;5049410;28;20521;-52
2022/02/08 03:31:56;;;;;;;1.45;0.20;;;20.90;43.30;;;;;;5044453;28;20136;-54
2022/02/08 03:34:24;;;;;;;5.15;0.50;;;20.90;43.30;;;;;;5043374;28;20041;-52
2022/02/08 03:36:52;;;;;;;1.10;0.57;;;20.90;43.30;;;;;;5043304;28;20124;-54
2022/02/08 03:39:32;;;;;;;1.30;0.30;;;20.90;43.20;;;;;;5043663;28;20038;-55
2022/02/08 03:42:34;;;;;;;1.25;0.50;;;20.90;43.20;;;;;;5035357;28;20052;-53
2022/02/08 03:45:11;;;;;;;2.50;0.52;;;20.80;43.20;;;;;;5050259;28;20097;-52
2022/02/08 03:47:38;;;;;;;3.75;0.35;;;20.80;43.20;;;;;;5044746;28;20040;-51
2022/02/08 03:50:07;;;;;;;3.05;1.02;;;20.90;43.30;;;;;;5046637;28;20033;-49
2022/02/08 03:52:35;;;;;;;2.92;0.30;;;20.90;43.30;;;;;;5047849;28;20045;-50
2022/02/08 03:55:03;;;;;;;0.50;0.10;;;20.90;43.30;;;;;;5047053;28;20053;-52
2022/02/08 03:57:33;;;;;;;1.08;0.50;;;20.90;43.20;;;;;;5044048;28;20387;-52
2022/02/08 04:00:07;;;;;;;3.13;0.35;;;20.90;43.10;;;;;;5048559;28;20041;-50
2022/02/08 04:02:47;;;;;;;2.03;0.57;;;20.90;43.10;;;;;;5053137;28;20057;-49
2022/02/08 04:05:21;;;;;;;2.30;0.73;;;20.90;43.10;;;;;;5063831;28;20040;-48
2022/02/08 04:07:52;;;;;;;2.42;0.30;;;20.90;43.10;;;;;;5048427;28;20065;-49
2022/02/08 04:10:22;;;;;;;3.22;0.63;;;20.80;43.00;;;;;;5044486;28;20048;-49
2022/02/08 04:13:00;;;;;;;4.20;0.68;;;20.80;43.10;;;;;;5044082;28;20052;-48
2022/02/08 04:15:39;;;;;;;2.75;0.20;;;20.90;43.10;;;;;;5043197;28;20535;-52
2022/02/08 04:18:32;;;;;;;1.65;0.50;;;20.90;43.10;;;;;;5041556;28;20091;-52
2022/02/08 04:34:51;;;;;;;2.10;0.25;;;20.80;43.10;;;;;;5044113;28;20044;-54
2022/02/08 04:40:36;;;;;;;1.00;0.20;;;20.80;43.10;;;;;;5040936;28;20044;-50
2022/02/08 04:43:22;;;;;;;1.08;0.32;;;20.80;43.10;;;;;;5049871;28;20040;-51
2022/02/08 04:45:54;;;;;;;1.52;0.10;;;20.80;43.00;;;;;;5043675;28;20542;-47
2022/02/08 04:51:12;;;;;;;1.65;0.60;;;20.80;43.00;;;;;;5042837;28;20041;-54
2022/02/08 04:53:46;;;;;;;1.17;0.20;;;20.80;43.00;;;;;;5046828;28;20056;-53
2022/02/08 04:56:20;;;;;;;2.08;0.20;;;20.80;43.00;;;;;;5048714;28;20492;-53
2022/02/08 04:58:54;;;;;;;1.10;0.20;;;20.80;43.00;;;;;;5041865;28;20044;-50
2022/02/08 05:01:27;;;;;;;2.20;0.38;;;20.80;43.10;;;;;;5040995;28;20048;-45
2022/02/08 05:37:37;;;;;;;0.30;0.30;;;20.80;43.40;;;;;;4993909;28;20051;-48
2022/02/08 05:43:06;;;;;;;0.95;0.40;;;20.70;43.50;;;;;;4993706;28;20042;-54
2022/02/08 05:45:37;;;;;;;0.77;0.17;;;20.80;43.40;;;;;;4981147;28;20537;-51
2022/02/08 05:48:10;;;;;;;0.55;0.25;;;20.70;43.40;;;;;;4996482;28;20058;-52
2022/02/08 05:50:41;;;;;;;0.82;0.20;;;20.70;43.40;;;;;;4994683;28;20046;-51
2022/02/08 05:53:26;;;;;;;1.70;0.10;;;20.70;43.40;;;;;;4997350;28;20543;-52
2022/02/08 05:55:53;;;;;;;1.77;0.13;;;20.80;43.40;;;;;;4991615;28;20042;-52
2022/02/08 05:58:20;;;;;;;0.32;0.10;;;20.80;43.40;;;;;;4997254;28;20046;-54
2022/02/08 06:00:48;;;;;;;1.10;0.10;;;20.70;43.40;;;;;;4997574;28;20050;-55
2022/02/08 06:03:37;;;;;;;0.32;0.10;;;20.80;43.40;;;;;;4978842;28;20533;-53
2022/02/08 06:06:06;;;;;;;0.30;0.20;;;20.80;43.40;;;;;;4977857;28;20073;-50
2022/02/08 06:08:34;;;;;;;0.75;0.20;;;20.70;43.30;;;;;;4979393;28;20054;-53
2022/02/08 06:11:04;;;;;;;0.55;0.10;;;20.70;43.40;;;;;;4995592;28;20045;-53
2022/02/08 06:13:31;;;;;;;1.00;0.77;;;20.80;43.40;;;;;;5039731;28;20040;-54
2022/02/08 06:16:02;;;;;;;1.20;0.25;;;20.80;43.40;;;;;;5059775;28;20036;-51
2022/02/08 06:18:30;;;;;;;2.30;0.40;;;20.80;43.40;;;;;;5058008;28;20052;-53
2022/02/08 06:20:59;;;;;;;0.95;0.40;;;20.80;43.40;;;;;;5060203;28;23665;-53
2022/02/08 06:23:27;;;;;;;1.80;0.30;;;20.80;43.40;;;;;;5060481;28;20134;-53
2022/02/08 06:25:55;;;;;;;0.75;0.20;;;20.80;43.40;;;;;;5058965;28;20516;-52
2022/02/08 06:28:23;;;;;;;0.60;0.10;;;20.80;43.50;;;;;;5059831;28;20033;-51
2022/02/08 06:30:51;;;;;;;2.35;0.55;;;20.80;43.40;;;;;;5057724;28;20611;-52
2022/02/08 06:33:18;;;;;;;0.40;0.10;;;20.80;43.40;;;;;;5060131;28;20654;-51
2022/02/08 06:35:46;;;;;;;0.80;0.10;;;20.80;43.50;;;;;;5058309;28;20592;-54
2022/02/08 06:38:16;;;;;;;0.10;0.10;;;20.80;43.40;;;;;;5060980;28;20045;-53
2022/02/08 06:40:47;;;;;;;0.50;0.20;;;20.80;43.40;;;;;;5059019;28;20052;-52
2022/02/08 06:43:16;;;;;;;1.00;0.10;;;20.80;43.50;;;;;;5044743;28;20043;-53
2022/02/08 06:45:43;;;;;;;1.17;0.10;;;20.80;43.40;;;;;;5045391;28;20043;-51
2022/02/08 06:48:11;;;;;;;0.32;0.20;;;20.80;43.40;;;;;;5044902;28;20112;-51
2022/02/08 06:50:38;;;;;;;0.57;0.10;;;20.80;43.40;;;;;;5047981;28;20052;-55
2022/02/08 06:53:07;;;;;;;2.88;0.10;;;20.80;43.40;;;;;;5046786;28;20044;-51
2022/02/08 06:55:35;;;;;;;0.90;0.90;;;20.80;43.40;;;;;;5045132;28;20138;-53
2022/02/08 06:58:04;;;;;;;0.30;0.17;;;20.80;43.50;;;;;;5044318;28;20041;-55
2022/02/08 07:00:36;;;;;;;0.90;0.10;;;20.80;43.40;;;;;;5045393;28;20128;-53
2022/02/08 07:03:04;;;;;;;0.40;0.10;;;20.80;43.50;;;;;;5044271;28;20049;-52
2022/02/08 07:05:31;;;;;;;1.38;0.20;;;20.80;43.50;;;;;;5047454;28;20041;-53
2022/02/08 07:07:59;;;;;;;1.35;0.40;;;20.80;43.50;;;;;;5044451;28;20049;-54
2022/02/08 07:10:27;;;;;;;0.88;0.15;;;20.80;43.50;;;;;;5044501;28;20056;-52
2022/02/08 07:12:56;;;;;;;0.30;0.05;;;20.80;43.50;;;;;;5045242;28;20076;-53
2022/02/08 07:15:24;;;;;;;0.45;0.10;;;20.80;43.60;;;;;;5040926;28;20256;-50
2022/02/08 07:17:51;;;;;;;0.30;0.10;;;20.80;43.50;;;;;;5045110;28;20069;-49
2022/02/08 07:20:19;;;;;;;0.30;0.10;;;20.80;43.50;;;;;;5045567;28;20107;-49
2022/02/08 07:22:47;;;;;;;0.47;0.20;;;20.90;43.60;;;;;;5039484;28;20421;-51
2022/02/08 07:25:14;;;;;;;3.13;0.10;;;20.80;43.70;;;;;;5039974;28;20037;-52
2022/02/08 07:27:42;;;;;;;0.20;0.10;;;20.70;43.70;;;;;;5045432;28;20063;-52
2022/02/08 07:30:13;;;;;;;1.20;0.10;;;20.70;43.90;;;;;;5037759;28;20059;-51
2022/02/08 07:32:43;;;;;;;0.50;0.25;;;20.60;44.00;;;;;;5043344;28;20572;-46
2022/02/08 07:35:27;;;;;;;0.30;0.17;;;20.60;44.10;;;;;;5045027;28;20037;-48
2022/02/08 07:38:03;;;;;;;0.77;0.60;;;20.60;44.20;;;;;;5045302;28;20134;-51
2022/02/08 07:41:34;;;;;;;0.10;0.10;;;20.50;44.30;;;;;;5044306;28;20049;-51
2022/02/08 07:43:28;;;;;;;0.22;0.10;;;20.50;44.30;;;;;;5045741;28;20051;-54
2022/02/08 07:46:26;;;;;;;0.60;0.60;;;20.50;44.40;;;;;;5031713;28;20053;-52
2022/02/08 07:48:53;;;;;;;2.35;0.68;;;20.40;44.40;;;;;;5043196;28;20056;-53
2022/02/08 07:51:23;;;;;;;1.38;0.47;;;20.40;44.50;;;;;;5044182;28;20700;-53
2022/02/08 07:53:50;;;;;;;0.43;0.30;;;20.40;44.60;;;;;;5045269;28;20585;-51
2022/02/08 07:56:17;;;;;;;7.18;0.30;;;20.40;44.80;;;;;;5045484;28;20043;-57
2022/02/08 07:58:44;;;;;;;2.08;0.20;;;20.50;45.20;;;;;;5043750;28;20056;-53
2022/02/08 08:01:11;;;;;;;8.65;0.55;;;20.60;45.30;;;;;;5042473;28;20136;-57
2022/02/08 08:03:42;;;;;;;4.78;0.10;;;20.70;45.30;;;;;;5044308;28;20064;-61
2022/02/08 08:06:10;;;;;;;4.15;0.20;;;20.70;45.30;;;;;;5045047;28;20057;-59
2022/02/08 08:08:38;;;;;;;1.95;0.40;;;20.80;45.30;;;;;;5045443;28;20122;-61
2022/02/08 08:11:10;;;;;;;3.13;0.52;;;20.80;45.20;;;;;;5045460;28;20033;-52
2022/02/08 08:13:41;;;;;;;3.20;0.30;;;20.80;45.10;;;;;;5043926;28;20043;-57
2022/02/08 08:16:17;;;;;;;0.75;0.10;;;20.90;44.90;;;;;;5040905;28;20827;-60
2022/02/08 08:18:59;;;;;;;9.18;0.35;;;20.90;44.80;;;;;;5044128;28;20061;-58
2022/02/08 08:21:26;;;;;;;1.98;0.10;;;21.00;44.80;;;;;;5043372;28;20520;-58
2022/02/08 08:23:54;;;;;;;2.00;0.68;;;21.00;45.50;;;;;;5043857;28;20041;-63
2022/02/08 08:26:22;;;;;;;3.47;0.10;;;21.00;44.90;;;;;;5045205;28;20522;-64
2022/02/08 08:28:49;;;;;;;6.85;0.30;;;21.10;45.00;;;;;;5044782;28;20048;-62
2022/02/08 08:31:17;;;;;;;3.33;0.20;;;21.10;45.00;;;;;;5041781;28;20045;-63
2022/02/08 08:33:46;;;;;;;4.50;0.82;;;21.10;44.90;;;;;;5044050;28;20076;-66
2022/02/08 08:36:16;;;;;;;0.90;0.30;;;21.10;44.90;;;;;;5041894;28;20049;-63
2022/02/08 08:38:44;;;;;;;1.65;0.22;;;21.10;44.90;;;;;;5044582;28;20047;-52
2022/02/08 08:41:21;;;;;;;2.42;0.10;;;21.20;44.90;;;;;;5045342;28;20659;-54
2022/02/08 08:44:16;;;;;;;1.27;0.55;;;21.20;44.80;;;;;;5043925;28;20502;-52
2022/02/08 08:49:50;;;;;;;0.95;0.20;;;21.20;44.80;;;;;;5043177;28;20049;-56
2022/02/08 08:52:23;;;;;;;1.88;0.15;;;21.20;44.70;;;;;;5039749;28;20037;-55
2022/02/08 08:54:50;;;;;;;3.83;0.10;;;21.20;44.70;;;;;;5042151;28;20045;-55
2022/02/08 08:57:18;;;;;;;0.68;0.25;;;21.20;44.70;;;;;;5043461;28;20033;-78
2022/02/08 08:59:45;;;;;;;8.25;0.40;;;21.30;44.70;;;;;;5042791;28;20055;-57
2022/02/08 09:02:13;;;;;;;2.83;0.10;;;21.30;44.60;;;;;;5042454;28;20040;-68
2022/02/08 09:04:44;;;;;;;1.77;0.40;;;21.30;44.60;;;;;;5042764;28;20041;-68
2022/02/08 09:07:12;;;;;;;2.78;0.20;;;21.30;44.60;;;;;;5041898;28;20033;-61
2022/02/08 09:09:43;;;;;;;1.05;0.43;;;21.20;44.70;;;;;;5041322;28;20064;-63
2022/02/08 09:12:22;;;;;;;0.85;0.35;;;21.20;44.80;;;;;;5042172;28;20049;-64
2022/02/08 09:26:05;;;;;;;1.95;0.10;;;21.00;45.30;;;;;;4942445;29;20047;-69
2022/02/08 09:28:42;;;;;;;;;;;21.00;46.00;;;;;;4944399;29;20049;-60
2022/02/08 09:31:15;;;;;;;0.63;0.10;;;20.90;45.90;;;;;;4943572;29;19937;-68
2022/02/08 09:33:42;;;;;;;4.03;0.40;;;20.90;45.50;;;;;;4943473;29;20486;-65
2022/02/08 09:36:11;;;;;;;1.25;0.20;;;20.90;45.60;;;;;;4941262;28;20135;-54
2022/02/08 09:38:38;;;;;;;3.30;0.68;;;20.90;45.60;;;;;;4943106;29;20051;-55
2022/02/08 09:41:05;;;;;;;0.32;0.20;;;20.90;45.70;;;;;;4943525;28;20055;-53
2022/02/08 09:43:33;;;;;;;19.90;2.72;;;20.90;45.70;;;;;;4942867;29;20107;-58
2022/02/08 09:46:04;;;;;;;1.65;0.50;;;20.90;45.70;;;;;;4942228;29;20101;-57
2022/02/08 09:48:39;;;;;;;2.55;0.20;;;21.00;45.70;;;;;;4966008;28;20042;-57
2022/02/08 09:51:07;;;;;;;1.83;0.60;;;21.00;45.60;;;;;;4998534;28;20062;-55
2022/02/08 09:53:36;;;;;;;1.13;0.35;;;21.00;45.50;;;;;;5002680;28;20461;-55
2022/02/08 09:56:05;;;;;;;1.80;0.10;;;21.10;45.40;;;;;;5000470;28;20179;-53
2022/02/08 09:58:33;;;;;;;0.82;0.30;;;21.10;45.40;;;;;;4999009;28;20050;-51
2022/02/08 10:01:09;;;;;;;0.90;0.30;;;21.10;45.40;;;;;;4997883;28;20156;-55
2022/02/08 10:03:38;;;;;;;1.52;0.57;;;21.20;45.50;;;;;;5029242;28;20501;-54
2022/02/08 10:06:05;;;;;;;0.47;0.47;;;21.20;45.40;;;;;;5042026;28;20048;-46
2022/02/08 10:08:32;;;;;;;1.38;0.20;;;21.20;45.50;;;;;;5045004;28;20494;-54
2022/02/08 10:11:13;;;;;;;0.63;0.20;;;21.20;45.50;;;;;;5040966;28;20053;-55
2022/02/08 10:13:46;;;;;;;1.05;0.38;;;21.30;45.50;;;;;;5040064;28;20397;-52
2022/02/08 10:19:16;;;;;;;5.82;0.40;;;21.30;45.50;;;;;;5045879;28;20056;-63
2022/02/08 10:21:45;;;;;;;1.67;0.20;;;21.30;45.10;;;;;;5031107;28;20214;-59
2022/02/08 10:24:14;;;;;;;1.55;0.55;;;21.30;44.90;;;;;;5042487;28;20509;-46
2022/02/08 10:26:55;;;;;;;1.42;0.10;;;21.30;44.80;;;;;;5042958;28;20501;-47
2022/02/08 10:29:27;;;;;;;11.43;0.63;;;21.40;44.80;;;;;;5040308;28;20140;-46
2022/02/08 10:40:19;;;;;;;1.65;0.20;;;21.70;43.80;;;;;;5040202;28;20136;-50
2022/02/08 10:42:54;;;;;;;0.50;0.10;;;21.90;43.60;;;;;;5041976;28;20144;-54
2022/02/08 10:45:23;;;;;;;1.88;0.20;;;22.10;43.40;;;;;;5043238;28;20037;-56
2022/02/08 10:47:59;;;;;;;4.03;0.20;;;22.20;43.10;;;;;;5042677;28;20120;-50
2022/02/08 10:50:27;;;;;;;0.25;0.15;;;22.30;42.80;;;;;;5040713;28;20048;-44
2022/02/08 10:52:56;;;;;;;0.52;0.52;;;22.40;42.60;;;;;;5040542;28;20051;-51
2022/02/08 10:55:32;;;;;;;2.60;0.60;;;22.50;42.30;;;;;;5041123;28;20041;-50
2022/02/08 10:58:12;;;;;;;8.82;0.30;;;22.60;42.10;;;;;;5042836;28;20114;-46
2022/02/08 11:00:43;;;;;;;10.60;0.60;;;22.80;41.90;;;;;;5038862;28;20045;-52
2022/02/08 11:03:16;;;;;;;2.38;0.32;;;22.80;41.60;;;;;;5040374;28;20160;-48
2022/02/08 11:05:59;;;;;;;2.17;0.30;;;23.00;41.50;;;;;;5042141;28;20493;-45
2022/02/08 11:08:44;;;;;;;2.38;0.30;;;23.10;41.20;;;;;;5042977;28;20051;-47
2022/02/08 11:11:32;;;;;;;1.05;0.30;;;23.10;40.80;;;;;;5040017;28;20057;-46
2022/02/08 11:14:20;;;;;;;1.15;0.68;;;23.30;40.60;;;;;;5041309;28;20037;-47
2022/02/08 11:20:04;;;;;;;;;;;23.50;40.10;;;;;;5031662;28;20078;-46
2022/02/08 11:22:42;;;;;;;;;;;23.40;40.40;;;;;;5041974;28;19951;-48
2022/02/08 11:25:21;;;;;;;1.50;0.40;;;23.50;39.80;;;;;;5040400;28;19932;-46
2022/02/08 11:27:52;;;;;;;0.40;0.40;;;23.60;39.70;;;;;;5041269;28;20045;-49
2022/02/08 11:30:40;;;;;;;0.77;0.50;;;23.60;39.40;;;;;;5038864;28;20049;-51
2022/02/08 11:45:31;;;;;;;2.10;0.30;;;24.10;38.60;;;;;;4975505;28;20054;-44
2022/02/08 11:48:13;;;;;;;2.22;0.38;;;24.20;38.40;;;;;;4977175;28;20043;-51
2022/02/08 11:50:58;;;;;;;3.60;0.40;;;24.20;38.20;;;;;;4974285;28;20535;-47
2022/02/08 11:53:34;;;;;;;2.33;0.63;;;24.30;38.00;;;;;;4976970;28;20054;-49
2022/02/08 11:56:22;;;;;;;1.65;0.63;;;24.30;37.90;;;;;;4978129;28;20057;-50
2022/02/08 11:59:01;;;;;;;6.18;1.17;;;24.40;37.90;;;;;;4969991;28;20048;-54
2022/02/08 12:01:44;;;;;;;4.95;0.82;;;24.50;38.10;;;;;;4972054;28;20137;-53
2022/02/08 12:04:32;;;;;;;2.58;0.65;;;24.50;38.30;;;;;;4975415;28;20157;-52
2022/02/08 12:07:07;;;;;;;2.25;0.70;;;24.60;38.50;;;;;;4973909;28;20046;-47
2022/02/08 12:09:42;;;;;;;4.07;0.50;;;24.70;38.50;;;;;;4955069;28;21002;-49
2022/02/08 12:32:06;;;;;;;;;;;25.30;38.10;;;;;;4938596;28;20051;-62
2022/02/08 12:49:06;;;;;;;1.17;0.30;;;25.60;37.40;;;;;;4938831;28;20129;-48
2022/02/08 12:54:39;;;;;;;2.17;0.55;;;25.70;37.50;;;;;;4995351;28;20038;-64
2022/02/08 12:57:15;;;;;;;1.83;0.20;;;25.80;37.60;;;;;;5005651;28;20103;-70
2022/02/08 13:00:06;;;;;;;1.92;0.20;;;25.90;37.50;;;;;;5035393;28;21588;-64
2022/02/08 13:02:47;;;;;;;1.85;0.20;;;26.00;37.50;;;;;;5041309;28;20807;-65
2022/02/08 13:06:01;;;;;;;1.77;0.70;;;26.00;37.40;;;;;;5040972;28;20037;-63
2022/02/08 13:20:09;;;;;;;1.07;0.20;;;26.10;37.20;;;;;;5012975;28;20041;-67
2022/02/08 14:07:05;;;;;;;1.08;0.30;;;25.60;37.70;;;;;;4920499;29;20050;-56
2022/02/08 14:09:45;;;;;;;1.42;0.10;;;25.60;37.80;;;;;;4920158;29;20052;-53
2022/02/08 14:15:45;;;;;;;1.23;0.30;;;25.60;37.80;;;;;;5092673;27;20507;-60
2022/02/08 14:18:37;;;;;;;1.20;0.10;;;25.60;37.80;;;;;;5091626;28;20615;-55
2022/02/08 14:21:11;;;;;;;0.45;0.10;;;25.60;37.80;;;;;;5094022;28;20118;-67
2022/02/08 14:23:57;;;;;;;0.65;0.10;;;25.60;37.90;;;;;;5101021;28;20058;-63
2022/02/08 14:29:36;;;;;;;0.20;0.20;;;25.60;37.90;;;;;;5094261;28;20406;-59
2022/02/08 14:32:32;;;;;;;0.30;0.10;;;25.50;37.80;;;;;;5090784;28;20043;-54
2022/02/08 15:05:44;;;;;;;0.70;0.10;;;25.40;38.10;;;;;;5050739;28;20049;-69
2022/02/08 15:08:16;;;;;;;1.00;0.10;;;25.40;38.10;;;;;;5043757;28;20095;-61
2022/02/08 15:10:48;;;;;;;7.32;0.10;;;25.40;38.20;;;;;;5055495;28;20571;-62
2022/02/08 15:13:17;;;;;;;0.43;0.10;;;25.40;38.10;;;;;;5045930;28;20742;-56
2022/02/08 15:16:03;;;;;;;0.30;0.08;;;25.40;38.10;;;;;;5032214;28;20084;-56
2022/02/08 15:18:32;;;;;;;5.10;0.17;;;25.40;38.20;;;;;;5050638;28;20090;-65
2022/02/08 15:21:02;;;;;;;2.17;0.43;;;25.40;38.20;;;;;;5050864;28;20044;-57
2022/02/08 15:23:30;;;;;;;0.52;0.10;;;25.30;38.20;;;;;;5047033;28;20045;-66
2022/02/08 15:25:59;;;;;;;0.10;0.00;;;25.30;38.40;;;;;;5033923;28;20045;-72
2022/02/08 15:28:27;;;;;;;0.10;0.10;;;25.20;38.50;;;;;;5071691;28;20884;-62
2022/02/08 15:30:56;;;;;;;0.30;0.10;;;25.10;38.60;;;;;;5078634;28;20040;-66
2022/02/08 15:33:24;;;;;;;1.27;0.63;;;25.00;38.70;;;;;;5077410;28;20135;-58
2022/02/08 15:35:53;;;;;;;0.20;0.10;;;25.00;39.00;;;;;;5076086;28;20580;-61
2022/02/08 15:38:27;;;;;;;1.55;0.10;;;24.90;39.10;;;;;;5085801;28;20044;-63
2022/02/08 15:40:55;;;;;;;2.75;0.10;;;24.90;39.20;;;;;;5075534;28;20043;-63
2022/02/08 15:43:22;;;;;;;0.08;0.00;;;24.90;39.10;;;;;;5078041;28;20561;-65
2022/02/08 15:45:53;;;;;;;0.20;0.10;;;24.90;39.20;;;;;;5087016;28;20055;-64
2022/02/08 15:48:22;;;;;;;1.38;0.20;;;24.90;39.10;;;;;;5079715;28;20040;-60
2022/02/08 15:50:58;;;;;;;0.20;0.10;;;24.90;39.10;;;;;;5081358;28;20067;-61
2022/02/08 15:53:34;;;;;;;0.47;0.10;;;24.90;39.20;;;;;;5079336;28;20064;-58
2022/02/08 16:05:08;;;;;;;0.75;0.20;;;24.90;39.30;;;;;;5013718;28;20550;-57
2022/02/08 16:07:14;;;;;;;0.50;0.10;;;24.80;39.50;;;;;;5014786;28;20609;-63
2022/02/08 16:09:47;;;;;;;0.57;0.20;;;24.80;39.50;;;;;;5007523;28;20049;-62
2022/02/08 16:17:55;;;;;;;0.10;0.10;;;24.80;39.50;;;;;;5013843;28;20107;-62
2022/02/08 16:20:37;;;;;;;0.50;0.10;;;24.80;39.40;;;;;;5015665;28;20771;-63
2022/02/08 16:23:37;;;;;;;0.25;0.10;;;24.80;39.40;;;;;;5013978;28;20127;-63
2022/02/08 16:26:18;;;;;;;0.20;0.10;;;24.80;39.50;;;;;;5012704;28;20437;-62
2022/02/08 16:29:02;;;;;;;0.25;0.10;;;24.80;39.50;;;;;;5017293;28;20053;-71
2022/02/08 16:31:58;;;;;;;2.63;0.20;;;24.80;39.60;;;;;;5008882;28;20096;-56
2022/02/08 16:53:53;;;;;;;2.20;0.10;;;24.70;40.00;;;;;;4963081;28;20061;-48
2022/02/08 16:56:26;;;;;;;0.10;0.10;;;24.70;40.10;;;;;;4954706;28;20043;-51
2022/02/08 16:58:55;;;;;;;0.10;0.10;;;24.70;40.20;;;;;;4955330;28;20078;-54
2022/02/08 17:01:27;;;;;;;0.13;0.10;;;24.70;40.20;;;;;;4956082;28;20121;-55
2022/02/08 17:03:54;;;;;;;0.80;0.10;;;24.70;40.20;;;;;;4953195;28;20153;-59
2022/02/08 17:06:24;;;;;;;2.08;0.10;;;24.70;40.20;;;;;;4959688;28;20042;-60
2022/02/08 17:08:59;;;;;;;0.63;0.10;;;24.70;40.40;;;;;;4960579;28;21009;-58
2022/02/08 17:11:36;;;;;;;0.85;0.10;;;24.70;40.40;;;;;;4955786;28;20138;-57
2022/02/08 17:47:42;;;;;;;0.10;0.00;;;24.50;40.30;;;;;;4922835;29;20043;-67
2022/02/08 17:50:13;;;;;;;2.42;0.28;;;24.50;40.20;;;;;;4901566;29;20044;-65
2022/02/08 17:52:41;;;;;;;0.50;0.20;;;24.50;40.30;;;;;;4920257;28;20146;-62
2022/02/08 17:55:10;;;;;;;0.30;0.08;;;24.50;40.30;;;;;;4938327;28;20203;-59
2022/02/08 17:57:37;;;;;;;1.92;0.10;;;24.50;40.40;;;;;;4983851;28;20047;-52
2022/02/08 18:00:07;;;;;;;0.68;0.38;;;24.50;40.40;;;;;;4975176;28;20054;-61
2022/02/08 18:02:39;;;;;;;3.60;0.20;;;24.40;40.40;;;;;;4981140;28;20046;-62
2022/02/08 18:05:09;;;;;;;1.27;0.10;;;24.30;40.40;;;;;;4977729;28;20323;-62
2022/02/08 18:07:37;;;;;;;0.50;0.00;;;24.30;40.30;;;;;;4976861;28;20069;-62
2022/02/08 18:10:05;;;;;;;0.93;0.43;;;24.30;40.20;;;;;;4993483;28;20045;-62
2022/02/08 18:12:34;;;;;;;0.63;0.10;;;24.30;40.20;;;;;;5014281;28;20583;-63
2022/02/08 18:15:06;;;;;;;0.65;0.10;;;24.30;40.20;;;;;;5018277;28;20054;-61
2022/02/08 18:17:38;;;;;;;0.40;0.10;;;24.20;40.20;;;;;;5017894;28;20041;-62
2022/02/08 18:20:19;;;;;;;0.95;0.63;;;24.20;40.20;;;;;;5078936;28;20130;-62
2022/02/08 18:22:55;;;;;;;0.10;0.10;;;24.20;40.30;;;;;;5078271;28;20704;-63